Time;durP1;ratioP1;P1;durP2;ratioP2;P2;SDS_P1;SDS_P2;PMS_P1;PMS_P2;Temp;Humidity;BMP_temperature;BMP_pressure;BME280_temperature;BME280_humidity;BME280_pressure;Samples;Min_cycle;Max_cycle;Signal;HPM_P1;HPM_P2
2022/10/10 00:00:41;;;;;;;2.37;1.40;;;;;;;7.56;100.00;100073.92;1671933;85;21086;-77
2022/10/10 00:03:08;;;;;;;4.10;1.72;;;;;;;7.55;100.00;100073.51;1668998;83;21010;-77
2022/10/10 00:05:38;;;;;;;7.22;1.47;;;;;;;7.52;100.00;100068.83;1688071;85;21163;-77
2022/10/10 00:08:06;;;;;;;3.02;1.70;;;;;;;7.49;100.00;100069.73;1681276;85;21063;-77
2022/10/10 00:10:33;;;;;;;2.58;1.32;;;;;;;7.47;100.00;100083.14;1678806;85;20975;-76
2022/10/10 00:13:01;;;;;;;2.50;1.00;;;;;;;7.47;100.00;100080.55;1678891;85;21023;-77
2022/10/10 00:15:28;;;;;;;2.70;1.32;;;;;;;7.45;100.00;100078.44;1678914;85;21031;-77
2022/10/10 00:17:54;;;;;;;1.45;1.25;;;;;;;7.41;100.00;100069.02;1678802;85;21176;-77
2022/10/10 00:20:22;;;;;;;4.47;1.40;;;;;;;7.41;100.00;100069.45;1678794;85;20960;-77
2022/10/10 00:22:49;;;;;;;2.50;1.10;;;;;;;7.38;100.00;100074.28;1678794;85;20972;-77
2022/10/10 00:25:17;;;;;;;2.67;1.30;;;;;;;7.36;100.00;100077.33;1678776;83;21055;-77
2022/10/10 00:27:43;;;;;;;3.17;1.50;;;;;;;7.34;100.00;100067.45;1678909;85;20975;-77
2022/10/10 00:30:11;;;;;;;1.65;1.37;;;;;;;7.33;100.00;100073.94;1678864;85;20996;-75
2022/10/10 00:32:38;;;;;;;4.42;1.20;;;;;;;7.29;100.00;100072.28;1678795;85;20999;-75
2022/10/10 00:35:06;;;;;;;2.05;0.98;;;;;;;7.29;100.00;100066.67;1678729;85;21071;-75
2022/10/10 00:37:34;;;;;;;5.00;1.80;;;;;;;7.30;100.00;100068.38;1678854;85;21062;-77
2022/10/10 00:40:02;;;;;;;5.20;1.45;;;;;;;7.32;100.00;100071.80;1678878;85;21002;-77
2022/10/10 00:42:28;;;;;;;3.35;1.62;;;;;;;7.31;100.00;100073.12;1678865;85;21171;-77
2022/10/10 00:45:36;;;;;;;2.65;1.60;;;;;;;7.27;100.00;100078.78;1678765;85;21534;-77
2022/10/10 00:48:31;;;;;;;3.08;1.20;;;;;;;7.25;100.00;100074.92;1678817;85;21476;-76
2022/10/10 00:51:13;;;;;;;3.00;1.50;;;;;;;7.22;100.00;100074.13;1679042;85;21003;-76
2022/10/10 00:53:46;;;;;;;3.65;1.60;;;;;;;7.18;100.00;100081.11;1678830;85;20967;-76
2022/10/10 00:56:13;;;;;;;2.85;1.50;;;;;;;7.16;100.00;100078.98;1648139;87;21113;-76
2022/10/10 00:58:42;;;;;;;3.25;1.55;;;;;;;7.14;100.00;100080.75;1678696;85;20956;-76
2022/10/10 01:01:09;;;;;;;5.25;1.70;;;;;;;7.12;100.00;100079.92;1679037;85;21113;-76
2022/10/10 01:03:36;;;;;;;2.60;1.20;;;;;;;7.09;100.00;100074.80;1674399;85;21486;-76
2022/10/10 01:06:02;;;;;;;2.35;1.40;;;;;;;7.07;100.00;100078.28;1664699;85;20975;-76
2022/10/10 01:08:31;;;;;;;2.85;1.50;;;;;;;7.05;100.00;100079.60;1665160;85;21008;-76
2022/10/10 01:11:21;;;;;;;3.52;1.50;;;;;;;7.02;100.00;100078.36;1670430;85;21011;-76
2022/10/10 01:14:08;;;;;;;2.85;1.22;;;;;;;7.00;100.00;100080.55;1670394;85;21491;-76
2022/10/10 01:17:06;;;;;;;2.95;1.07;;;;;;;6.96;100.00;100075.90;1637000;87;21055;-76
2022/10/10 01:23:20;;;;;;;2.40;1.30;;;;;;;6.91;100.00;100077.27;1636905;87;21005;-76
2022/10/10 01:26:17;;;;;;;1.72;1.00;;;;;;;6.88;100.00;100082.48;1636910;87;21084;-76
2022/10/10 01:29:08;;;;;;;3.67;1.50;;;;;;;6.85;100.00;100088.14;1633519;87;21089;-76
2022/10/10 01:31:38;;;;;;;4.92;1.47;;;;;;;6.82;100.00;100082.58;1627449;88;21125;-76
2022/10/10 01:34:19;;;;;;;2.80;1.67;;;;;;;6.80;100.00;100088.64;1627599;88;21545;-76
2022/10/10 01:37:19;;;;;;;4.60;1.30;;;;;;;6.79;100.00;100092.14;1626830;88;21136;-76
2022/10/10 01:40:04;;;;;;;2.83;1.50;;;;;;;6.78;100.00;100089.14;1637111;87;21027;-76
2022/10/10 01:42:47;;;;;;;2.72;1.45;;;;;;;6.76;100.00;100092.18;1637514;87;20988;-76
2022/10/10 01:45:14;;;;;;;3.98;1.55;;;;;;;6.74;100.00;100095.23;1623952;88;21073;-75
2022/10/10 01:47:41;;;;;;;2.62;1.50;;;;;;;6.73;100.00;100102.56;1627494;88;20974;-75
2022/10/10 01:50:15;;;;;;;2.52;1.42;;;;;;;6.71;100.00;100101.73;1627455;88;21521;-75
2022/10/10 01:52:58;;;;;;;4.28;1.52;;;;;;;6.68;100.00;100101.34;1627491;88;21075;-76
2022/10/10 01:55:48;;;;;;;8.18;2.17;;;;;;;6.66;100.00;100099.21;1627764;88;20987;-76
2022/10/10 01:58:35;;;;;;;4.28;1.47;;;;;;;6.63;100.00;100104.42;1669868;85;21538;-76
2022/10/10 02:01:40;;;;;;;3.22;1.20;;;;;;;6.63;100.00;100103.13;1633647;85;21035;-77
2022/10/10 02:04:15;;;;;;;3.95;1.52;;;;;;;6.64;100.00;100112.59;1670885;85;21782;-75
2022/10/10 02:06:56;;;;;;;3.92;1.52;;;;;;;6.62;100.00;100114.34;1668335;85;21003;-75
2022/10/10 02:09:28;;;;;;;2.58;1.25;;;;;;;6.59;100.00;100119.59;1666759;85;21464;-77
2022/10/10 02:11:56;;;;;;;3.60;1.40;;;;;;;6.55;100.00;100120.51;1670242;85;21220;-76
2022/10/10 02:14:28;;;;;;;1.82;1.20;;;;;;;6.52;100.00;100126.57;1671992;85;21463;-76
2022/10/10 02:16:56;;;;;;;4.70;1.60;;;;;;;6.48;100.00;100124.91;1662438;85;21282;-76
2022/10/10 02:19:23;;;;;;;3.25;1.60;;;;;;;6.46;100.00;100129.67;1666213;85;20972;-77
2022/10/10 02:21:51;;;;;;;3.33;1.57;;;;;;;6.44;100.00;100131.42;1671903;85;20971;-76
2022/10/10 02:24:20;;;;;;;2.45;1.47;;;;;;;6.43;100.00;100129.70;1665689;85;21059;-77
2022/10/10 02:26:54;;;;;;;2.30;1.57;;;;;;;6.42;100.00;100135.75;1663026;85;21027;-76
2022/10/10 02:29:25;;;;;;;2.98;1.70;;;;;;;6.40;100.00;100138.79;1670793;85;21251;-76
2022/10/10 02:32:15;;;;;;;6.53;2.15;;;;;;;6.39;100.00;100147.45;1663263;85;21004;-76
2022/10/10 02:34:49;;;;;;;3.35;1.50;;;;;;;6.37;100.00;100142.30;1671751;84;21443;-76
2022/10/10 02:37:15;;;;;;;2.85;1.50;;;;;;;6.36;100.00;100144.91;1671967;85;21507;-76
2022/10/10 02:39:45;;;;;;;4.33;1.50;;;;;;;6.35;100.00;100144.48;1671907;85;21451;-77
2022/10/10 02:42:12;;;;;;;5.05;1.45;;;;;;;6.33;100.00;100153.54;1671871;85;21151;-77
2022/10/10 02:44:39;;;;;;;3.00;1.37;;;;;;;6.34;100.00;100151.81;1658398;85;20995;-77
2022/10/10 02:47:05;;;;;;;3.10;1.52;;;;;;;6.34;100.00;100154.39;1668427;85;21007;-77
2022/10/10 02:49:33;;;;;;;2.75;1.25;;;;;;;6.34;100.00;100153.11;1672044;85;20975;-77
2022/10/10 02:51:59;;;;;;;5.58;1.72;;;;;;;6.33;100.00;100157.86;1654624;85;20988;-77
2022/10/10 02:54:26;;;;;;;2.60;1.47;;;;;;;6.32;100.00;100157.00;1666742;85;21059;-70
2022/10/10 02:56:53;;;;;;;3.15;1.72;;;;;;;6.30;100.00;100170.81;1668717;85;21035;-70
2022/10/10 02:59:20;;;;;;;3.55;1.30;;;;;;;6.27;100.00;100156.63;1670074;85;20971;-70
2022/10/10 03:01:46;;;;;;;5.12;1.70;;;;;;;6.25;100.00;100164.40;1671846;85;21018;-71
2022/10/10 03:04:13;;;;;;;2.92;1.65;;;;;;;6.21;100.00;100154.53;1672011;85;21468;-71
2022/10/10 03:06:41;;;;;;;2.85;1.50;;;;;;;6.20;100.00;100157.14;1666768;85;22191;-71
2022/10/10 03:09:07;;;;;;;3.98;1.55;;;;;;;6.17;100.00;100159.79;1668088;85;21495;-71
2022/10/10 03:11:34;;;;;;;2.80;1.62;;;;;;;6.16;100.00;100160.23;1670962;85;20987;-71
2022/10/10 03:14:01;;;;;;;2.37;1.25;;;;;;;6.14;100.00;100164.55;1671923;85;21028;-71
2022/10/10 03:16:28;;;;;;;2.87;1.42;;;;;;;6.13;100.00;100160.69;1672040;85;21523;-71
2022/10/10 03:18:56;;;;;;;2.17;1.40;;;;;;;6.11;100.00;100157.27;1671927;85;21495;-71
2022/10/10 03:21:23;;;;;;;2.75;1.42;;;;;;;6.09;100.00;100159.88;1671979;85;21400;-71
2022/10/10 03:23:49;;;;;;;2.42;1.15;;;;;;;6.08;100.00;100165.91;1671914;85;20984;-71
2022/10/10 03:26:16;;;;;;;3.42;1.52;;;;;;;6.06;100.00;100159.05;1671948;85;21015;-71
2022/10/10 03:28:43;;;;;;;3.47;1.37;;;;;;;6.03;100.00;100158.64;1670545;85;20980;-71
2022/10/10 03:31:10;;;;;;;5.37;1.25;;;;;;;6.02;100.00;100167.27;1668293;85;21155;-71
2022/10/10 03:33:37;;;;;;;2.80;1.25;;;;;;;6.01;100.00;100168.57;1671891;85;21062;-71
2022/10/10 03:36:05;;;;;;;2.62;1.10;;;;;;;6.01;100.00;100172.00;1669076;85;20984;-71
2022/10/10 03:38:31;;;;;;;3.72;1.40;;;;;;;6.01;100.00;100174.59;1669828;85;21015;-70
2022/10/10 03:40:58;;;;;;;2.80;1.70;;;;;;;6.00;100.00;100167.71;1667085;85;21003;-72
2022/10/10 03:43:25;;;;;;;3.25;1.52;;;;;;;5.99;100.00;100170.34;1671896;85;21153;-70
2022/10/10 03:45:51;;;;;;;3.70;1.85;;;;;;;5.97;100.00;100172.09;1672017;85;21015;-71
2022/10/10 03:48:18;;;;;;;1.85;1.50;;;;;;;5.97;100.00;100169.50;1668301;85;21003;-72
2022/10/10 03:50:45;;;;;;;1.85;1.30;;;;;;;5.94;100.00;100174.27;1665614;85;21067;-73
2022/10/10 03:53:12;;;;;;;2.08;1.70;;;;;;;5.91;100.00;100175.59;1671996;85;20972;-73
2022/10/10 03:55:40;;;;;;;4.15;1.82;;;;;;;5.88;100.00;100172.59;1672166;85;21950;-73
2022/10/10 03:58:08;;;;;;;7.37;1.70;;;;;;;5.86;100.00;100183.34;1667208;85;21066;-73
2022/10/10 04:00:35;;;;;;;2.55;1.67;;;;;;;5.86;100.00;100185.92;1672010;85;21524;-72
2022/10/10 04:03:05;;;;;;;4.05;1.80;;;;;;;5.83;100.00;100189.82;1670230;85;20975;-72
2022/10/10 04:05:38;;;;;;;6.83;1.90;;;;;;;5.80;100.00;100191.14;1683699;84;20999;-73
2022/10/10 04:08:04;;;;;;;4.87;1.60;;;;;;;5.78;100.00;100189.47;1693770;84;21230;-66
2022/10/10 04:10:31;;;;;;;1.85;1.37;;;;;;;5.75;100.00;100199.83;1689367;84;20967;-64
2022/10/10 04:12:57;;;;;;;4.78;1.67;;;;;;;5.72;100.00;100201.14;1688265;85;21015;-64
2022/10/10 04:15:24;;;;;;;6.70;1.77;;;;;;;5.70;100.00;100200.30;1688616;85;21089;-64
2022/10/10 04:17:51;;;;;;;5.12;2.33;;;;;;;5.67;100.00;100198.60;1688154;85;20971;-64
2022/10/10 04:20:19;;;;;;;6.80;2.40;;;;;;;5.66;100.00;100204.63;1688266;85;21153;-64
2022/10/10 04:22:46;;;;;;;4.50;1.80;;;;;;;5.65;100.00;100207.23;1688127;85;21074;-64
2022/10/10 04:25:13;;;;;;;4.30;1.40;;;;;;;5.65;100.00;100206.79;1688275;85;20982;-64
2022/10/10 04:27:42;;;;;;;2.33;1.40;;;;;;;5.65;100.00;100204.21;1688256;85;21022;-64
2022/10/10 04:30:10;;;;;;;2.92;1.60;;;;;;;5.66;100.00;100213.66;1688442;85;20987;-64
2022/10/10 04:32:38;;;;;;;5.92;1.70;;;;;;;5.67;100.00;100210.65;1688603;85;21505;-64
2022/10/10 04:35:07;;;;;;;2.77;1.55;;;;;;;5.69;100.00;100215.36;1654796;86;21507;-64
2022/10/10 04:37:34;;;;;;;2.75;1.30;;;;;;;5.72;100.00;100215.34;1654626;86;20987;-64
2022/10/10 04:40:00;;;;;;;9.35;2.10;;;;;;;5.73;100.00;100217.91;1647283;87;21032;-64
2022/10/10 04:42:27;;;;;;;7.28;2.15;;;;;;;5.77;100.00;100218.73;1635780;87;21022;-64
2022/10/10 04:44:53;;;;;;;3.27;2.02;;;;;;;5.81;100.00;100223.83;1635804;87;21727;-64
2022/10/10 04:47:20;;;;;;;6.78;2.02;;;;;;;5.86;100.00;100226.38;1635727;87;21015;-64
2022/10/10 04:49:46;;;;;;;4.33;1.80;;;;;;;5.89;100.00;100227.67;1635884;87;21039;-64
2022/10/10 04:52:13;;;;;;;4.78;2.72;;;;;;;5.91;100.00;100228.52;1635769;87;21225;-64
2022/10/10 04:54:39;;;;;;;4.28;1.50;;;;;;;5.94;100.00;100232.36;1635883;87;20986;-64
2022/10/10 04:57:06;;;;;;;3.75;1.60;;;;;;;5.99;100.00;100228.44;1635771;87;22137;-64
2022/10/10 04:59:32;;;;;;;1.87;1.20;;;;;;;6.04;100.00;100234.39;1635940;87;21482;-64
2022/10/10 05:01:59;;;;;;;1.52;1.10;;;;;;;6.08;100.00;100233.48;1635851;87;21034;-64
2022/10/10 05:04:25;;;;;;;5.22;1.40;;;;;;;6.13;100.00;100239.47;1635712;87;21078;-65
2022/10/10 05:06:52;;;;;;;2.77;1.42;;;;;;;6.17;100.00;100235.98;1635891;87;21054;-64
2022/10/10 05:09:21;;;;;;;3.42;1.27;;;;;;;6.21;100.00;100237.20;1636437;87;21126;-64
2022/10/10 05:11:49;;;;;;;1.90;1.20;;;;;;;6.27;100.00;100241.45;1637071;87;21028;-65
2022/10/10 05:14:15;;;;;;;3.80;1.30;;;;;;;6.32;100.00;100242.69;1637113;87;21059;-64
2022/10/10 05:16:46;;;;;;;4.33;1.50;;;;;;;6.34;100.00;100246.97;1637156;87;21024;-64
2022/10/10 05:19:17;;;;;;;5.08;1.30;;;;;;;6.37;100.00;100243.06;1637219;87;20984;-64
2022/10/10 05:21:47;;;;;;;1.85;1.02;;;;;;;6.42;100.00;100249.44;1636633;87;21512;-65
2022/10/10 05:24:15;;;;;;;2.77;1.00;;;;;;;6.48;100.00;100248.94;1635884;87;20972;-65
2022/10/10 05:26:42;;;;;;;2.22;1.07;;;;;;;6.52;100.00;100248.03;1636333;87;21523;-67
2022/10/10 05:29:13;;;;;;;8.43;6.20;;;;;;;6.58;100.00;100258.73;1635895;87;21040;-67
2022/10/10 05:31:44;;;;;;;5.53;2.62;;;;;;;6.64;100.00;100259.08;1635317;87;21551;-66
2022/10/10 05:34:14;;;;;;;3.92;1.60;;;;;;;6.68;100.00;100260.75;1635795;87;21160;-64
2022/10/10 05:36:43;;;;;;;3.87;1.98;;;;;;;6.74;100.00;100256.37;1629502;87;21069;-65
2022/10/10 05:39:12;;;;;;;4.65;1.85;;;;;;;6.78;100.00;100251.58;1654786;86;21466;-65
2022/10/10 05:41:41;;;;;;;4.97;1.42;;;;;;;6.82;100.00;100262.70;1657606;86;21460;-65
2022/10/10 05:44:10;;;;;;;4.30;1.77;;;;;;;6.87;100.00;100264.36;1682275;85;21078;-66
2022/10/10 05:46:36;;;;;;;2.27;1.47;;;;;;;6.94;100.00;100258.68;1688245;85;21335;-65
2022/10/10 05:49:09;;;;;;;3.27;1.90;;;;;;;7.01;100.00;100259.42;1688007;85;21506;-65
2022/10/10 05:51:37;;;;;;;2.52;1.00;;;;;;;7.06;100.00;100254.61;1688201;85;21073;-65
2022/10/10 05:54:05;;;;;;;3.10;1.07;;;;;;;7.13;100.00;100258.83;1687985;85;21062;-64
2022/10/10 05:56:33;;;;;;;1.27;0.70;;;;;;;7.17;100.00;100257.05;1689403;85;20967;-64
2022/10/10 05:58:59;;;;;;;3.72;1.30;;;;;;;7.19;100.00;100247.54;1689579;85;21245;-65
2022/10/10 06:01:26;;;;;;;1.12;0.93;;;;;;;7.24;100.00;100255.62;1689846;85;21026;-65
2022/10/10 06:03:56;;;;;;;3.45;1.40;;;;;;;7.29;100.00;100264.62;1688621;85;21030;-65
2022/10/10 06:06:29;;;;;;;2.17;1.32;;;;;;;7.35;100.00;100264.53;1674735;84;21046;-66
2022/10/10 06:08:59;;;;;;;1.87;0.90;;;;;;;7.40;100.00;100257.53;1669211;85;21042;-66
2022/10/10 06:11:30;;;;;;;1.70;1.00;;;;;;;7.48;100.00;100267.77;1670577;85;21620;-66
2022/10/10 06:14:00;;;;;;;5.03;1.35;;;;;;;7.55;100.00;100269.39;1672251;85;21018;-66
2022/10/10 06:16:27;;;;;;;0.98;0.82;;;;;;;7.61;100.00;100267.97;1677596;85;21168;-66
2022/10/10 06:18:56;;;;;;;4.87;1.20;;;;;;;7.68;100.00;100278.65;1679667;85;21530;-66
2022/10/10 06:21:22;;;;;;;2.62;0.85;;;;;;;7.74;100.00;100268.20;1679762;85;21078;-65
2022/10/10 06:23:51;;;;;;;1.60;0.85;;;;;;;7.80;100.00;100265.48;1677971;85;21197;-64
2022/10/10 06:26:18;;;;;;;2.77;1.02;;;;;;;7.85;100.00;100282.23;1673463;85;21546;-66
2022/10/10 06:28:45;;;;;;;4.40;1.07;;;;;;;7.88;100.00;100279.16;1678797;85;21030;-65
2022/10/10 06:31:14;;;;;;;5.45;2.27;;;;;;;7.92;100.00;100263.98;1672953;85;21448;-68
2022/10/10 06:33:44;;;;;;;4.87;1.10;;;;;;;8.02;100.00;100272.87;1648133;86;21066;-68
2022/10/10 06:36:17;;;;;;;1.95;1.02;;;;;;;8.08;100.00;100275.36;1620817;87;21902;-69
2022/10/10 06:39:59;;;;;;;7.05;1.25;;;;;;;8.12;100.00;100280.91;1608925;89;21455;-69
2022/10/10 06:42:30;;;;;;;2.65;1.37;;;;;;;8.17;100.00;100277.34;1609654;89;21163;-80
2022/10/10 06:44:58;;;;;;;2.02;1.00;;;;;;;8.27;100.00;100285.34;1609533;89;21006;-79
2022/10/10 06:47:25;;;;;;;4.17;1.20;;;;;;;8.33;100.00;100287.45;1609629;89;21002;-79
2022/10/10 06:49:55;;;;;;;1.45;0.90;;;;;;;8.38;100.00;100283.89;1609583;89;21899;-79
2022/10/10 06:52:23;;;;;;;7.08;1.35;;;;;;;8.44;100.00;100288.94;1609570;89;20999;-79
2022/10/10 06:54:52;;;;;;;2.80;0.90;;;;;;;8.51;100.00;100291.83;1609591;88;21047;-78
2022/10/10 06:57:21;;;;;;;2.72;1.50;;;;;;;8.61;100.00;100302.85;1609692;87;21050;-78
2022/10/10 06:59:50;;;;;;;5.03;1.17;;;;;;;8.70;100.00;100302.68;1609855;89;20991;-79
2022/10/10 07:02:18;;;;;;;4.42;1.50;;;;;;;8.73;100.00;100289.66;1609882;87;21039;-79
2022/10/10 07:04:45;;;;;;;2.75;1.00;;;;;;;8.76;100.00;100286.14;1609633;88;21076;-82
2022/10/10 07:07:11;;;;;;;2.90;1.10;;;;;;;8.83;100.00;100295.48;1609574;88;20997;-80
2022/10/10 07:09:39;;;;;;;5.12;3.27;;;;;;;8.91;100.00;100288.41;1609602;87;21025;-83
2022/10/10 07:12:06;;;;;;;2.00;1.20;;;;;;;9.00;100.00;100289.48;1609638;89;21513;-85
2022/10/10 07:14:35;;;;;;;3.35;1.10;;;;;;;9.10;100.00;100290.15;1627587;87;21254;-81
2022/10/10 07:17:02;;;;;;;2.15;0.90;;;;;;;9.17;100.00;100299.52;1609752;87;20979;-81
2022/10/10 07:19:28;;;;;;;2.83;1.05;;;;;;;9.24;100.00;100297.17;1609639;88;21075;-77
2022/10/10 07:22:00;;;;;;;2.90;1.40;;;;;;;9.31;100.00;100299.61;1609682;89;21076;-78
2022/10/10 07:24:27;;;;;;;3.50;1.22;;;;;;;9.37;100.00;100290.83;1609713;88;21168;-78
2022/10/10 07:26:55;;;;;;;6.25;1.30;;;;;;;9.46;99.29;100299.69;1609820;89;21233;-84
2022/10/10 07:29:23;;;;;;;3.25;0.80;;;;;;;9.51;98.31;100299.58;1609649;89;20995;-78
2022/10/10 07:31:50;;;;;;;2.85;1.27;;;;;;;9.54;97.80;100304.70;1609730;89;21002;-82
2022/10/10 07:34:18;;;;;;;2.95;0.95;;;;;;;9.57;98.09;100302.04;1609789;88;21042;-79
2022/10/10 07:36:49;;;;;;;2.22;0.80;;;;;;;9.63;96.94;100291.48;1608263;88;21219;-85
2022/10/10 07:39:25;;;;;;;1.57;0.88;;;;;;;9.69;96.74;100305.63;1662441;85;21434;-80
2022/10/10 07:41:58;;;;;;;2.37;0.80;;;;;;;9.74;95.91;100305.08;1641926;86;21530;-83
2022/10/10 07:44:25;;;;;;;7.70;1.00;;;;;;;9.80;95.38;100304.91;1652156;85;21010;-81
2022/10/10 07:46:52;;;;;;;4.50;0.80;;;;;;;9.86;95.61;100300.00;1653520;86;20994;-82
2022/10/10 07:49:19;;;;;;;1.80;0.80;;;;;;;9.92;95.78;100305.91;1648605;86;21576;-76
2022/10/10 07:51:46;;;;;;;2.20;0.78;;;;;;;9.99;94.42;100298.34;1649584;86;21308;-83
2022/10/10 07:54:13;;;;;;;6.60;1.10;;;;;;;10.07;93.65;100315.05;1651620;86;21010;-79
2022/10/10 07:56:41;;;;;;;1.35;0.55;;;;;;;10.11;93.57;100301.09;1649776;86;20974;-81
2022/10/10 07:59:08;;;;;;;1.57;0.57;;;;;;;10.14;92.89;100305.36;1647869;86;21031;-79
2022/10/10 08:01:35;;;;;;;3.05;0.75;;;;;;;10.19;91.29;100301.75;1649042;86;21062;-76
2022/10/10 08:04:03;;;;;;;1.70;0.80;;;;;;;10.24;90.95;100299.03;1653443;86;21153;-77
2022/10/10 08:06:34;;;;;;;2.47;0.98;;;;;;;10.31;90.66;100307.94;1653468;85;20974;-78
2022/10/10 08:09:02;;;;;;;2.27;0.88;;;;;;;10.36;91.05;100293.52;1684853;84;21425;-79
2022/10/10 08:11:30;;;;;;;0.95;0.68;;;;;;;10.44;91.01;100291.55;1676982;84;21011;-85
2022/10/10 08:13:57;;;;;;;2.50;1.35;;;;;;;10.51;90.75;100290.48;1715981;83;21017;-83
2022/10/10 08:16:24;;;;;;;2.37;0.65;;;;;;;10.59;89.31;100294.19;1689974;84;21252;-84
2022/10/10 08:18:52;;;;;;;1.47;0.55;;;;;;;10.66;88.64;100306.95;1693557;84;21443;-79
2022/10/10 08:21:19;;;;;;;1.10;0.62;;;;;;;10.74;85.53;100297.64;1692515;84;21077;-75
2022/10/10 08:23:47;;;;;;;2.40;0.72;;;;;;;10.79;85.07;100303.54;1689212;83;21089;-76
2022/10/10 08:26:16;;;;;;;1.95;0.90;;;;;;;10.80;84.65;100303.09;1694938;84;20998;-77
2022/10/10 08:28:46;;;;;;;1.92;0.57;;;;;;;10.84;85.26;100298.20;1675171;84;21150;-76
2022/10/10 08:31:18;;;;;;;2.50;0.62;;;;;;;10.89;84.97;100311.50;1660420;86;21104;-76
2022/10/10 08:33:46;;;;;;;1.25;0.60;;;;;;;10.95;85.20;100300.06;1661549;86;21563;-74
2022/10/10 08:36:19;;;;;;;1.32;0.53;;;;;;;11.03;84.49;100303.27;1661578;86;21079;-75
2022/10/10 08:38:48;;;;;;;7.67;0.68;;;;;;;11.09;84.48;100304.84;1661900;86;21039;-75
2022/10/10 08:41:51;;;;;;;2.90;0.78;;;;;;;11.16;84.03;100299.42;1661404;86;21158;-74
2022/10/10 08:44:47;;;;;;;2.70;0.70;;;;;;;11.28;84.05;100299.48;1630321;86;21511;-74
2022/10/10 08:47:23;;;;;;;5.35;1.02;;;;;;;11.37;81.52;100297.91;1661601;86;20989;-74
2022/10/10 08:50:00;;;;;;;4.42;0.93;;;;;;;11.43;80.35;100303.34;1659332;86;21117;-75
2022/10/10 08:52:48;;;;;;;0.50;0.50;;;;;;;11.53;79.08;100299.56;1657624;86;21060;-74
2022/10/10 08:55:28;;;;;;;1.47;0.50;;;;;;;11.59;78.62;100304.10;1642269;86;21637;-75
2022/10/10 08:58:26;;;;;;;2.98;0.80;;;;;;;11.67;77.69;100308.63;1661460;86;21016;-77
2022/10/10 09:01:15;;;;;;;2.92;0.68;;;;;;;11.76;76.65;100298.81;1661059;86;21574;-75
2022/10/10 09:03:47;;;;;;;3.67;0.47;;;;;;;11.87;74.66;100296.27;1661462;86;21052;-76
2022/10/10 09:06:34;;;;;;;1.85;0.50;;;;;;;11.93;73.91;100301.74;1658958;86;21040;-79
2022/10/10 09:09:13;;;;;;;1.87;0.50;;;;;;;11.98;73.61;100302.00;1654365;85;21255;-75
2022/10/10 09:12:11;;;;;;;2.75;1.10;;;;;;;12.05;73.04;100302.61;1650963;86;20983;-75
2022/10/10 09:14:53;;;;;;;2.33;0.80;;;;;;;12.10;72.75;100298.55;1661833;85;21048;-76
2022/10/10 09:17:55;;;;;;;2.15;0.80;;;;;;;12.18;73.70;100296.55;1661487;85;20980;-76
2022/10/10 09:20:48;;;;;;;2.90;0.82;;;;;;;12.25;72.91;100283.22;1580588;90;46552;-76
2022/10/10 09:23:27;;;;;;;0.35;0.33;;;;;;;12.24;71.27;100288.03;1645951;86;21199;-78
2022/10/10 09:26:10;;;;;;;4.53;0.57;;;;;;;12.21;72.15;100289.44;1652536;86;20953;-78
2022/10/10 09:28:58;;;;;;;1.20;0.50;;;;;;;12.19;70.17;100286.03;1669722;86;20996;-73
2022/10/10 09:31:44;;;;;;;1.70;0.50;;;;;;;12.20;68.76;100282.52;1669819;86;21091;-73
2022/10/10 09:34:15;;;;;;;6.92;0.82;;;;;;;12.19;67.50;100283.91;1670164;86;20998;-73
2022/10/10 09:36:42;;;;;;;1.50;0.65;;;;;;;12.23;68.03;100271.13;1664123;86;21879;-73
2022/10/10 09:39:25;;;;;;;3.55;0.50;;;;;;;12.27;68.45;100280.10;1658474;86;21008;-73
2022/10/10 09:41:59;;;;;;;1.27;0.60;;;;;;;12.28;67.17;100303.98;1653365;86;21246;-73
2022/10/10 09:44:25;;;;;;;4.10;0.82;;;;;;;12.28;67.62;100278.34;1658834;85;21547;-73
2022/10/10 09:46:52;;;;;;;0.85;0.40;;;;;;;12.31;66.97;100296.50;1659933;85;20976;-73
2022/10/10 09:49:20;;;;;;;2.33;0.50;;;;;;;12.31;68.08;100283.01;1655539;86;21508;-73
2022/10/10 09:51:48;;;;;;;2.75;0.70;;;;;;;12.33;65.91;100298.61;1662668;85;21080;-73
2022/10/10 09:54:18;;;;;;;4.85;0.55;;;;;;;12.35;65.48;100278.09;1662545;85;21168;-72
2022/10/10 09:56:57;;;;;;;1.90;0.33;;;;;;;12.37;66.42;100276.28;1662464;85;20992;-72
2022/10/10 09:59:44;;;;;;;4.25;0.60;;;;;;;12.39;63.82;100280.11;1662571;86;21023;-72
2022/10/10 10:02:18;;;;;;;4.08;0.78;;;;;;;12.42;64.87;100269.56;1662460;85;21846;-72
2022/10/10 10:04:45;;;;;;;1.62;0.33;;;;;;;12.49;64.04;100260.62;1662355;86;21198;-73
2022/10/10 10:07:30;;;;;;;5.53;0.60;;;;;;;12.52;62.68;100280.08;1670286;84;20973;-73
2022/10/10 10:10:02;;;;;;;1.10;0.50;;;;;;;12.54;62.10;100269.14;1622444;88;21031;-74
2022/10/10 10:12:40;;;;;;;4.97;0.62;;;;;;;12.56;61.74;100257.34;1603341;88;20996;-72
2022/10/10 10:15:18;;;;;;;0.90;0.40;;;;;;;12.59;61.58;100272.41;1621610;87;21184;-73
2022/10/10 10:18:13;;;;;;;3.47;0.70;;;;;;;12.62;60.21;100250.11;1623090;88;21015;-72
2022/10/10 10:20:43;;;;;;;2.60;0.40;;;;;;;12.64;61.66;100248.30;1667103;85;20952;-72
2022/10/10 10:23:35;;;;;;;3.10;1.17;;;;;;;12.71;61.91;100243.26;1678198;85;21013;-72
2022/10/10 10:26:14;;;;;;;1.10;0.20;;;;;;;12.75;59.92;100250.06;1597680;88;21472;-73
2022/10/10 10:28:41;;;;;;;3.50;0.70;;;;;;;12.73;57.22;100262.78;1624244;88;21166;-73
2022/10/10 10:31:36;;;;;;;1.20;0.53;;;;;;;12.71;56.87;100250.23;1624182;87;21110;-73
2022/10/10 10:34:26;;;;;;;2.40;0.60;;;;;;;12.68;56.75;100243.82;1624138;88;21031;-73
2022/10/10 10:37:08;;;;;;;1.95;0.30;;;;;;;12.71;57.82;100242.41;1624135;88;21003;-72
2022/10/10 10:40:19;;;;;;;1.20;0.70;;;;;;;12.80;57.34;100235.52;1606444;88;21083;-73
2022/10/10 10:43:29;;;;;;;4.33;0.40;;;;;;;12.86;56.84;100236.59;1689823;85;21261;-72
2022/10/10 10:46:34;;;;;;;1.80;0.57;;;;;;;12.84;56.89;100227.97;1688087;85;21019;-71
2022/10/10 10:49:07;;;;;;;3.52;0.50;;;;;;;12.85;57.38;100245.33;1689585;85;21006;-69
2022/10/10 10:52:01;;;;;;;1.52;0.60;;;;;;;12.89;56.00;100239.09;1689572;85;21069;-70
2022/10/10 10:54:40;;;;;;;1.40;0.60;;;;;;;12.90;56.76;100233.41;1689556;85;21081;-72
2022/10/10 10:57:28;;;;;;;2.10;1.05;;;;;;;12.90;54.85;100248.62;1689367;85;21171;-71
2022/10/10 11:00:17;;;;;;;1.05;0.60;;;;;;;12.92;54.10;100229.84;1663544;85;21051;-71
2022/10/10 11:03:16;;;;;;;1.62;0.75;;;;;;;12.95;53.19;100223.65;1657966;85;21006;-73
2022/10/10 11:05:51;;;;;;;2.22;0.62;;;;;;;13.00;53.94;100216.46;1586648;90;21070;-73
2022/10/10 11:08:36;;;;;;;3.60;0.93;;;;;;;13.04;54.55;100217.59;1606901;88;21074;-75
2022/10/10 11:11:33;;;;;;;1.65;0.60;;;;;;;13.08;55.38;100217.02;1614034;89;21280;-73
2022/10/10 11:14:22;;;;;;;8.65;0.90;;;;;;;13.12;55.14;100222.52;1617873;87;21472;-73
2022/10/10 11:16:56;;;;;;;4.05;0.70;;;;;;;13.14;54.76;100214.63;1662527;86;21078;-71
2022/10/10 11:19:45;;;;;;;1.00;0.42;;;;;;;13.07;53.38;100237.06;1660727;86;21038;-72
2022/10/10 11:22:16;;;;;;;4.00;0.50;;;;;;;13.06;53.34;100210.55;1662529;86;21014;-73
2022/10/10 11:24:53;;;;;;;1.07;0.70;;;;;;;13.11;53.34;100212.53;1665923;86;21254;-73
2022/10/10 11:27:33;;;;;;;1.15;0.50;;;;;;;13.19;53.34;100216.16;1657949;86;20971;-73
2022/10/10 11:30:22;;;;;;;5.55;0.80;;;;;;;13.26;53.65;100216.31;1654834;86;20974;-73
2022/10/10 11:33:08;;;;;;;1.20;0.50;;;;;;;13.28;53.58;100207.11;1625360;88;21083;-72
2022/10/10 11:35:55;;;;;;;0.88;0.50;;;;;;;13.25;53.09;100212.45;1624576;88;21051;-73
2022/10/10 11:38:47;;;;;;;1.20;0.30;;;;;;;13.23;53.41;100202.52;1606671;88;21303;-73
2022/10/10 11:41:35;;;;;;;3.85;0.68;;;;;;;13.22;52.70;100210.81;1599040;89;21039;-74
2022/10/10 11:44:16;;;;;;;2.55;0.55;;;;;;;13.21;51.97;100206.95;1597322;89;21546;-73
2022/10/10 11:46:51;;;;;;;1.70;0.60;;;;;;;13.17;50.77;100211.47;1599376;88;21467;-73
2022/10/10 11:49:48;;;;;;;2.85;0.40;;;;;;;13.13;51.20;100195.49;1624494;88;21108;-73
2022/10/10 11:52:33;;;;;;;0.85;0.50;;;;;;;13.14;51.84;100198.95;1601707;87;21417;-72
2022/10/10 11:55:35;;;;;;;0.47;0.30;;;;;;;13.18;52.89;100202.73;1584389;90;21067;-72
2022/10/10 11:58:12;;;;;;;1.30;0.50;;;;;;;13.19;52.33;100183.99;1580153;90;21057;-72
2022/10/10 12:00:46;;;;;;;0.93;0.50;;;;;;;13.20;51.41;100202.18;1588397;90;21019;-73